Time;durP1;ratioP1;P1;durP2;ratioP2;P2;SDS_P1;SDS_P2;PMS_P1;PMS_P2;Temp;Humidity;BMP_temperature;BMP_pressure;BME280_temperature;BME280_humidity;BME280_pressure;Samples;Min_cycle;Max_cycle;Signal;HPM_P1;HPM_P2
2022/10/24 00:03:34;;;;;;;102.97;54.37;;;9.40;99.90;;;;;;10396505;28;20025;-78
2022/10/24 00:08:35;;;;;;;110.43;57.20;;;9.50;99.90;;;;;;10403867;28;20531;-81
2022/10/24 00:13:36;;;;;;;79.90;46.37;;;9.40;99.90;;;;;;10403191;28;20032;-78
2022/10/24 00:18:36;;;;;;;100.30;55.10;;;9.50;99.90;;;;;;10403361;28;20037;-78
2022/10/24 00:23:38;;;;;;;126.63;61.60;;;9.40;99.90;;;;;;10391739;28;20175;-78
2022/10/24 00:28:39;;;;;;;92.53;54.50;;;9.50;99.90;;;;;;10404042;28;20087;-78
2022/10/24 00:33:40;;;;;;;127.45;62.03;;;9.50;99.90;;;;;;10389588;28;20539;-79
2022/10/24 00:38:41;;;;;;;90.95;50.85;;;9.50;99.90;;;;;;10403064;28;20132;-78
2022/10/24 00:43:43;;;;;;;107.67;57.13;;;9.40;99.90;;;;;;10399831;28;20116;-79
2022/10/24 00:48:52;;;;;;;105.03;60.38;;;9.50;99.90;;;;;;10371384;28;20037;-78
2022/10/24 00:53:58;;;;;;;97.07;54.20;;;9.50;99.90;;;;;;10389747;28;20072;-81
2022/10/24 00:59:00;;;;;;;79.95;46.22;;;9.60;99.90;;;;;;10404107;28;20059;-78
2022/10/24 01:04:01;;;;;;;74.30;43.67;;;9.60;99.90;;;;;;10396159;28;20627;-78
2022/10/24 01:09:23;;;;;;;124.72;62.33;;;9.50;99.90;;;;;;10410984;28;20053;-79
2022/10/24 01:14:48;;;;;;;105.20;53.43;;;9.50;99.90;;;;;;10408963;28;20030;-79
2022/10/24 01:20:19;;;;;;;68.80;41.67;;;9.60;99.90;;;;;;10409022;28;20412;-80
2022/10/24 01:25:45;;;;;;;84.55;47.47;;;9.60;99.90;;;;;;10393147;28;20041;-78
2022/10/24 01:31:03;;;;;;;75.07;46.07;;;9.60;99.90;;;;;;10396552;28;20543;-78
2022/10/24 01:36:11;;;;;;;117.15;55.80;;;9.60;99.90;;;;;;10394098;28;20053;-80
2022/10/24 01:41:16;;;;;;;105.93;56.95;;;9.50;99.90;;;;;;10409163;28;20458;-78
2022/10/24 01:46:30;;;;;;;78.73;43.77;;;9.50;99.90;;;;;;10375933;28;20056;-79
2022/10/24 01:51:33;;;;;;;109.60;56.25;;;9.50;99.90;;;;;;10409115;28;20488;-78
2022/10/24 01:56:34;;;;;;;80.75;48.38;;;9.50;99.90;;;;;;10401598;28;20456;-78
2022/10/24 02:01:37;;;;;;;92.25;52.33;;;9.40;99.90;;;;;;10400579;28;20056;-78
2022/10/24 02:06:40;;;;;;;107.87;59.03;;;9.50;99.90;;;;;;10387326;28;20137;-79
2022/10/24 02:11:43;;;;;;;93.68;52.50;;;9.50;99.90;;;;;;10406104;28;20724;-79
2022/10/24 02:16:45;;;;;;;104.83;57.37;;;9.40;99.90;;;;;;10395575;28;20398;-78
2022/10/24 02:22:02;;;;;;;96.23;53.77;;;9.50;99.90;;;;;;10406670;28;20033;-81
2022/10/24 02:27:05;;;;;;;84.83;47.37;;;9.50;99.90;;;;;;10387100;28;20597;-80
2022/10/24 02:32:10;;;;;;;94.23;53.73;;;9.60;99.90;;;;;;10392060;28;20050;-79
2022/10/24 02:37:12;;;;;;;85.33;49.23;;;9.60;99.90;;;;;;10383347;28;20056;-81
2022/10/24 02:42:14;;;;;;;91.73;51.57;;;9.60;99.90;;;;;;10398839;28;20033;-79
2022/10/24 02:47:16;;;;;;;91.13;52.78;;;9.60;99.90;;;;;;10405954;28;20033;-78
2022/10/24 02:52:18;;;;;;;84.87;49.67;;;9.60;99.90;;;;;;10389086;28;20025;-80
2022/10/24 02:57:20;;;;;;;82.50;47.67;;;9.60;99.90;;;;;;10402914;28;20397;-78
2022/10/24 03:02:21;;;;;;;77.88;47.53;;;9.70;99.90;;;;;;10396574;28;20464;-79
2022/10/24 03:07:22;;;;;;;71.95;44.92;;;9.70;99.90;;;;;;10406250;28;20406;-78
2022/10/24 03:12:23;;;;;;;83.43;51.30;;;9.70;99.90;;;;;;10385733;28;20033;-78
2022/10/24 03:17:24;;;;;;;85.43;53.10;;;9.70;99.90;;;;;;10395953;28;20053;-79
2022/10/24 03:22:24;;;;;;;90.47;55.20;;;9.70;99.90;;;;;;10400179;28;20041;-78
2022/10/24 03:27:25;;;;;;;90.03;51.40;;;9.70;99.90;;;;;;10392534;28;20037;-78
2022/10/24 03:32:26;;;;;;;84.38;49.28;;;9.70;99.90;;;;;;10396863;28;20057;-80
2022/10/24 03:37:28;;;;;;;101.80;54.85;;;9.80;99.90;;;;;;10396422;28;20076;-79
2022/10/24 03:42:28;;;;;;;90.70;53.58;;;9.70;99.90;;;;;;10392799;28;20091;-82
2022/10/24 03:47:29;;;;;;;73.33;46.50;;;9.80;99.90;;;;;;10387872;28;20102;-79
2022/10/24 03:52:30;;;;;;;77.60;47.27;;;9.80;99.90;;;;;;10405205;28;20025;-79
2022/10/24 03:57:30;;;;;;;93.82;55.88;;;9.80;99.90;;;;;;10391809;28;20049;-79
2022/10/24 04:02:31;;;;;;;96.55;56.35;;;9.90;99.90;;;;;;10390271;28;20046;-80
2022/10/24 04:07:32;;;;;;;87.88;52.05;;;10.10;99.90;;;;;;10391561;28;20053;-78
2022/10/24 04:12:32;;;;;;;88.32;50.65;;;10.10;99.90;;;;;;10400703;28;20033;-78
2022/10/24 04:17:33;;;;;;;93.55;54.47;;;10.20;99.90;;;;;;10388111;28;20428;-78
2022/10/24 04:22:34;;;;;;;88.45;52.72;;;10.30;99.90;;;;;;10403656;28;20033;-82
2022/10/24 04:27:39;;;;;;;93.25;55.70;;;10.30;99.90;;;;;;10397464;28;20026;-78
2022/10/24 04:32:39;;;;;;;75.50;41.38;;;10.30;99.90;;;;;;10385939;28;20025;-78
2022/10/24 04:37:40;;;;;;;92.85;56.47;;;10.30;99.90;;;;;;10411485;28;20033;-80
2022/10/24 04:42:40;;;;;;;97.03;55.67;;;10.30;99.90;;;;;;10411511;28;20021;-78
2022/10/24 04:47:41;;;;;;;95.90;53.72;;;10.30;99.90;;;;;;10411668;28;20707;-79
2022/10/24 04:52:42;;;;;;;89.45;52.85;;;10.30;99.90;;;;;;10411304;28;20040;-79
2022/10/24 04:57:42;;;;;;;92.82;55.22;;;10.30;99.90;;;;;;10411681;28;20634;-79
2022/10/24 05:02:43;;;;;;;99.72;56.60;;;10.40;99.90;;;;;;10397252;28;20559;-78
2022/10/24 05:07:44;;;;;;;89.22;54.05;;;10.40;99.90;;;;;;10411063;28;20138;-80
2022/10/24 05:12:45;;;;;;;91.65;54.33;;;10.30;99.90;;;;;;10411404;28;20040;-78
2022/10/24 05:17:45;;;;;;;97.78;57.42;;;10.30;99.90;;;;;;10410258;28;20048;-80
2022/10/24 05:22:46;;;;;;;78.97;48.13;;;10.20;99.90;;;;;;10410708;28;20029;-77
2022/10/24 05:27:46;;;;;;;88.07;49.30;;;10.20;99.90;;;;;;10410116;28;20033;-79
2022/10/24 05:32:47;;;;;;;90.07;51.00;;;10.10;99.90;;;;;;10409781;28;20033;-81
2022/10/24 05:37:47;;;;;;;92.13;51.88;;;10.10;99.90;;;;;;10408717;28;20033;-78
2022/10/24 05:42:49;;;;;;;87.90;50.08;;;10.20;99.90;;;;;;10410165;28;20052;-80
2022/10/24 05:47:50;;;;;;;88.22;49.97;;;10.30;99.90;;;;;;10408359;28;20017;-79
2022/10/24 05:52:50;;;;;;;79.93;48.33;;;10.50;99.90;;;;;;10409571;28;20021;-79
2022/10/24 05:57:51;;;;;;;90.10;53.08;;;10.60;99.90;;;;;;10407575;28;20405;-78
2022/10/24 06:02:52;;;;;;;74.03;45.33;;;10.70;99.90;;;;;;10408730;28;20033;-80
2022/10/24 06:07:52;;;;;;;62.28;39.70;;;10.80;99.90;;;;;;10409034;28;20051;-79
2022/10/24 06:12:53;;;;;;;63.58;38.53;;;11.00;99.90;;;;;;10406471;28;20036;-78
2022/10/24 06:17:53;;;;;;;63.88;37.28;;;11.10;99.90;;;;;;10408011;28;20045;-82
2022/10/24 06:22:54;;;;;;;40.65;23.25;;;11.20;99.90;;;;;;10408504;28;20037;-78
2022/10/24 06:27:54;;;;;;;26.83;15.88;;;11.50;99.90;;;;;;10408038;28;20031;-76
2022/10/24 06:32:55;;;;;;;25.50;14.57;;;12.00;99.90;;;;;;10408126;28;20499;-81
2022/10/24 06:37:56;;;;;;;20.58;12.65;;;12.50;99.90;;;;;;10407820;28;20026;-77
2022/10/24 06:42:56;;;;;;;29.48;15.77;;;12.80;99.90;;;;;;10403807;28;20033;-78
2022/10/24 06:47:57;;;;;;;19.73;11.50;;;13.10;99.90;;;;;;10393308;28;20385;-78
2022/10/24 06:52:57;;;;;;;23.08;12.90;;;13.40;99.90;;;;;;10405856;28;20067;-77
2022/10/24 06:57:58;;;;;;;24.08;12.95;;;13.50;99.90;;;;;;10407009;28;20053;-77
2022/10/24 07:02:59;;;;;;;24.45;13.95;;;13.70;99.90;;;;;;10407249;28;20565;-78
2022/10/24 07:07:59;;;;;;;24.92;15.52;;;13.90;99.90;;;;;;10406187;28;20049;-77
2022/10/24 07:13:00;;;;;;;42.05;26.50;;;13.90;99.90;;;;;;10392457;28;20036;-77
2022/10/24 07:18:00;;;;;;;42.20;28.15;;;14.10;99.90;;;;;;10406006;28;20041;-78
2022/10/24 07:23:01;;;;;;;45.65;29.40;;;14.20;99.90;;;;;;10405580;28;20033;-77
2022/10/24 07:28:01;;;;;;;48.13;30.20;;;14.40;99.90;;;;;;10406187;28;20037;-78
2022/10/24 07:33:03;;;;;;;54.35;34.35;;;14.40;99.90;;;;;;10405457;28;20052;-78
2022/10/24 07:38:03;;;;;;;47.47;31.45;;;14.50;99.90;;;;;;10404373;28;20032;-79
2022/10/24 07:43:04;;;;;;;42.30;27.50;;;14.80;99.90;;;;;;10405504;28;20473;-77
2022/10/24 07:48:05;;;;;;;35.83;21.42;;;14.90;99.90;;;;;;10405500;28;20029;-77
2022/10/24 07:53:06;;;;;;;24.95;13.65;;;14.90;99.90;;;;;;10405141;28;20037;-78
2022/10/24 07:58:07;;;;;;;20.13;12.02;;;14.90;99.90;;;;;;10404680;28;20045;-81
2022/10/24 08:03:08;;;;;;;21.05;11.93;;;15.00;99.90;;;;;;10405157;28;20030;-77
2022/10/24 08:08:09;;;;;;;21.38;12.38;;;15.00;99.90;;;;;;10405293;28;20493;-79
2022/10/24 08:13:09;;;;;;;22.85;13.65;;;15.00;99.90;;;;;;10413609;28;20030;-80
2022/10/24 08:18:10;;;;;;;27.08;17.67;;;15.00;99.90;;;;;;10412972;28;20397;-77
2022/10/24 08:23:10;;;;;;;34.58;20.90;;;15.00;99.90;;;;;;10413079;28;20033;-80
2022/10/24 08:28:12;;;;;;;39.05;22.35;;;15.10;99.90;;;;;;10412543;28;20081;-78
2022/10/24 08:33:12;;;;;;;29.23;17.05;;;15.20;99.90;;;;;;10387902;28;20117;-77
2022/10/24 08:38:13;;;;;;;16.48;10.90;;;15.30;99.90;;;;;;10409949;28;20128;-80
2022/10/24 08:43:14;;;;;;;19.10;11.88;;;15.30;99.90;;;;;;10412039;28;20373;-81
2022/10/24 08:48:20;;;;;;;26.15;14.07;;;15.40;99.90;;;;;;10411570;28;20034;-77
2022/10/24 08:53:25;;;;;;;17.73;10.55;;;15.40;99.90;;;;;;10411706;28;20108;-77
2022/10/24 08:58:35;;;;;;;23.33;15.15;;;15.40;99.90;;;;;;10411332;28;20041;-78
2022/10/24 09:03:43;;;;;;;37.75;21.52;;;15.40;99.90;;;;;;10411121;28;20104;-77
2022/10/24 09:09:11;;;;;;;29.85;18.95;;;15.40;99.90;;;;;;10410928;28;20053;-80
2022/10/24 09:14:14;;;;;;;28.98;19.55;;;15.40;99.90;;;;;;10411110;28;20079;-78
2022/10/24 09:19:18;;;;;;;34.83;22.10;;;15.40;99.90;;;;;;10410256;28;20049;-81
2022/10/24 09:24:43;;;;;;;42.70;24.48;;;15.40;99.90;;;;;;10409787;28;20033;-77
2022/10/24 09:29:44;;;;;;;59.78;35.88;;;15.40;99.90;;;;;;10400118;28;20065;-79
2022/10/24 09:34:45;;;;;;;44.65;28.98;;;15.40;99.90;;;;;;10397449;28;20540;-78
2022/10/24 09:39:45;;;;;;;28.33;16.80;;;15.50;99.90;;;;;;10396927;28;20050;-81
2022/10/24 09:44:47;;;;;;;30.88;18.80;;;15.60;99.90;;;;;;10404595;28;20397;-80
2022/10/24 09:49:47;;;;;;;34.25;21.30;;;15.60;99.90;;;;;;10409418;28;20033;-80
2022/10/24 09:55:18;;;;;;;42.88;27.95;;;15.70;99.90;;;;;;10409578;28;20037;-78
2022/10/24 10:00:25;;;;;;;46.85;29.52;;;15.80;99.90;;;;;;10409309;28;20099;-78
2022/10/24 10:05:28;;;;;;;41.00;25.38;;;16.10;99.90;;;;;;10408720;28;20060;-79
2022/10/24 10:10:31;;;;;;;31.80;20.25;;;16.30;99.90;;;;;;10409204;28;20034;-78
2022/10/24 10:15:45;;;;;;;26.35;13.57;;;16.60;99.90;;;;;;10408474;28;20488;-78
2022/10/24 10:21:01;;;;;;;18.65;12.13;;;16.80;99.90;;;;;;10407278;28;20049;-78
2022/10/24 10:26:07;;;;;;;17.05;10.38;;;17.10;99.90;;;;;;10407934;28;20033;-78
2022/10/24 10:31:09;;;;;;;24.75;14.90;;;17.40;99.90;;;;;;10399463;28;20097;-82
2022/10/24 10:36:19;;;;;;;22.77;13.40;;;17.70;99.90;;;;;;10388238;28;20025;-81
2022/10/24 10:41:39;;;;;;;16.67;10.50;;;18.10;99.90;;;;;;10393586;28;20053;-81
2022/10/24 10:46:45;;;;;;;15.02;9.73;;;18.30;99.90;;;;;;10407824;28;20060;-79
2022/10/24 10:52:00;;;;;;;17.98;11.63;;;18.40;99.90;;;;;;10407151;28;20032;-79
2022/10/24 10:57:36;;;;;;;18.52;11.88;;;18.60;99.90;;;;;;10393176;28;20028;-79
2022/10/24 11:02:57;;;;;;;20.20;11.30;;;18.60;99.90;;;;;;10393088;28;20029;-81
2022/10/24 11:08:12;;;;;;;18.88;12.38;;;18.60;99.90;;;;;;10406596;28;20057;-80
2022/10/24 11:13:23;;;;;;;17.65;10.45;;;18.70;99.90;;;;;;10394553;28;20028;-78
2022/10/24 11:18:33;;;;;;;17.08;10.50;;;18.90;99.90;;;;;;10405913;28;20044;-80
2022/10/24 11:23:55;;;;;;;17.63;12.52;;;19.10;99.90;;;;;;10405991;28;20481;-79
2022/10/24 11:29:18;;;;;;;42.58;9.30;;;19.20;99.90;;;;;;10405915;28;20037;-77
2022/10/24 11:34:39;;;;;;;14.88;8.52;;;19.00;99.90;;;;;;10405655;28;20032;-78
2022/10/24 11:39:54;;;;;;;13.38;7.18;;;19.20;99.90;;;;;;10405587;28;20068;-81
2022/10/24 11:45:13;;;;;;;12.60;7.20;;;19.40;99.90;;;;;;10404345;28;20095;-78
2022/10/24 11:50:47;;;;;;;16.80;9.48;;;19.60;99.90;;;;;;10405808;28;20746;-81
2022/10/24 11:56:16;;;;;;;16.00;8.07;;;19.80;99.90;;;;;;10401599;28;20068;-78
2022/10/24 12:01:38;;;;;;;12.15;7.22;;;19.90;99.90;;;;;;10405263;28;20038;-83
2022/10/24 12:07:09;;;;;;;40.70;21.98;;;20.00;99.90;;;;;;10400800;28;20599;-78
2022/10/24 12:12:31;;;;;;;54.47;29.88;;;20.10;99.90;;;;;;10404909;28;20563;-81
2022/10/24 12:17:53;;;;;;;18.90;10.13;;;20.10;99.90;;;;;;10398581;28;20048;-79
2022/10/24 12:22:54;;;;;;;17.77;9.30;;;20.30;99.90;;;;;;10400711;28;20044;-79
2022/10/24 12:27:57;;;;;;;12.52;6.20;;;20.40;99.90;;;;;;10377800;28;20025;-82
2022/10/24 12:33:24;;;;;;;10.07;5.80;;;20.50;99.90;;;;;;10404361;28;20018;-78
2022/10/24 12:38:28;;;;;;;10.40;5.78;;;20.70;99.90;;;;;;10398156;28;20048;-78
2022/10/24 12:43:33;;;;;;;9.93;5.90;;;20.80;99.90;;;;;;10403557;28;20052;-79
2022/10/24 12:48:35;;;;;;;10.70;5.88;;;20.80;99.90;;;;;;10404060;28;20489;-77
2022/10/24 12:53:57;;;;;;;8.98;5.15;;;20.90;99.90;;;;;;10388383;28;20791;-78
2022/10/24 12:59:17;;;;;;;7.45;5.53;;;20.80;99.90;;;;;;10405714;28;20061;-79
2022/10/24 13:04:51;;;;;;;11.38;6.18;;;20.30;99.90;;;;;;10401519;28;20098;-78
2022/10/24 13:10:28;;;;;;;12.35;6.28;;;19.90;99.90;;;;;;10394081;28;20061;-77
2022/10/24 13:15:56;;;;;;;12.52;6.22;;;19.60;99.90;;;;;;10411132;28;20033;-79
2022/10/24 13:21:22;;;;;;;11.13;6.35;;;19.30;99.90;;;;;;10394823;28;20041;-77
2022/10/24 13:26:39;;;;;;;9.63;6.32;;;19.10;99.90;;;;;;10404088;28;20029;-77
2022/10/24 13:31:44;;;;;;;8.48;5.80;;;19.00;99.90;;;;;;10410180;28;20132;-80
2022/10/24 13:36:49;;;;;;;12.40;6.53;;;18.80;99.90;;;;;;10402842;28;20037;-82
2022/10/24 13:42:00;;;;;;;10.93;6.57;;;18.60;99.90;;;;;;10394423;28;20938;-79
2022/10/24 13:47:21;;;;;;;10.32;6.53;;;18.50;99.90;;;;;;10408791;28;20036;-77
2022/10/24 13:52:37;;;;;;;11.18;7.07;;;18.40;99.90;;;;;;10395661;28;20541;-80
2022/10/24 13:57:56;;;;;;;;;;;18.30;99.90;;;;;;10403196;28;20029;-79
2022/10/24 14:02:59;;;;;;;13.73;8.10;;;18.10;99.90;;;;;;10401042;28;19917;-80
2022/10/24 14:08:01;;;;;;;10.38;6.47;;;17.80;99.90;;;;;;10402184;28;20058;-78
2022/10/24 14:13:02;;;;;;;10.88;6.32;;;17.90;99.90;;;;;;10390774;28;20034;-78
2022/10/24 14:18:12;;;;;;;12.85;8.00;;;17.90;99.90;;;;;;10394630;28;20045;-78
2022/10/24 14:23:30;;;;;;;14.43;7.90;;;17.90;99.90;;;;;;10381750;28;20041;-77
2022/10/24 14:28:37;;;;;;;13.32;7.65;;;17.70;99.90;;;;;;10394123;28;20055;-80
2022/10/24 14:33:44;;;;;;;12.48;8.30;;;17.60;99.90;;;;;;10388199;28;20021;-77
2022/10/24 14:38:45;;;;;;;13.02;9.00;;;17.50;99.90;;;;;;10393785;28;20370;-78
2022/10/24 14:43:46;;;;;;;24.73;12.82;;;17.30;99.90;;;;;;10406719;28;20448;-77
2022/10/24 14:48:48;;;;;;;22.90;13.60;;;17.10;99.90;;;;;;10380317;28;20044;-77
2022/10/24 14:53:49;;;;;;;21.50;12.15;;;16.90;99.90;;;;;;10393831;28;20024;-80
2022/10/24 14:58:52;;;;;;;21.80;13.45;;;16.70;99.90;;;;;;10391106;28;20085;-77
2022/10/24 15:03:57;;;;;;;21.63;12.50;;;16.50;99.90;;;;;;10387459;28;20037;-78
2022/10/24 15:09:24;;;;;;;20.97;13.40;;;16.40;99.90;;;;;;10377379;28;20057;-78
2022/10/24 15:14:46;;;;;;;17.98;11.18;;;16.30;99.90;;;;;;10396427;28;20041;-81
2022/10/24 15:19:48;;;;;;;15.02;10.25;;;16.20;99.90;;;;;;10387480;28;20037;-80
2022/10/24 15:24:53;;;;;;;16.58;10.93;;;16.10;99.90;;;;;;10392804;28;20104;-79
2022/10/24 15:29:54;;;;;;;19.23;12.20;;;16.00;99.90;;;;;;10389437;28;20060;-83
2022/10/24 15:34:54;;;;;;;25.77;12.50;;;15.90;99.90;;;;;;10391111;28;20029;-81
2022/10/24 15:39:55;;;;;;;23.10;12.27;;;15.80;99.90;;;;;;10401660;28;20110;-77
2022/10/24 15:44:56;;;;;;;18.45;11.57;;;15.70;99.90;;;;;;10379682;28;20029;-82
2022/10/24 15:49:56;;;;;;;22.52;13.55;;;15.60;99.90;;;;;;10401124;28;20678;-82
2022/10/24 15:54:59;;;;;;;32.63;25.55;;;15.40;99.90;;;;;;10382615;28;20028;-78
2022/10/24 15:59:59;;;;;;;36.70;24.48;;;15.30;99.90;;;;;;10394494;28;20076;-76
2022/10/24 16:05:00;;;;;;;28.50;15.43;;;15.20;99.90;;;;;;10396720;28;20113;-77
2022/10/24 16:10:01;;;;;;;25.92;13.73;;;15.10;99.90;;;;;;10396552;28;20049;-80
2022/10/24 16:15:02;;;;;;;33.55;19.75;;;15.20;99.90;;;;;;10394417;28;20067;-79
2022/10/24 16:20:03;;;;;;;32.05;18.88;;;15.20;99.90;;;;;;10389400;28;20053;-81
2022/10/24 16:25:04;;;;;;;33.58;20.45;;;15.20;99.90;;;;;;10397391;28;20037;-77
2022/10/24 16:30:05;;;;;;;63.30;33.88;;;15.20;99.90;;;;;;10405067;28;20040;-82
2022/10/24 16:35:06;;;;;;;38.58;23.60;;;15.10;99.90;;;;;;10410778;28;20041;-79
2022/10/24 16:40:07;;;;;;;67.00;33.45;;;15.00;99.90;;;;;;10404538;28;20135;-78
2022/10/24 16:45:08;;;;;;;31.67;18.70;;;15.00;99.90;;;;;;10402880;28;20109;-78
2022/10/24 16:50:22;;;;;;;21.13;14.10;;;15.00;99.90;;;;;;10400352;28;20033;-83
2022/10/24 16:55:23;;;;;;;49.40;27.20;;;15.00;99.90;;;;;;10405886;28;20080;-79
2022/10/24 17:00:24;;;;;;;29.30;17.70;;;14.90;99.90;;;;;;10394029;28;20033;-79
2022/10/24 17:05:27;;;;;;;43.15;22.83;;;14.90;99.90;;;;;;10388218;28;20022;-82
2022/10/24 17:10:27;;;;;;;33.03;20.35;;;14.80;99.90;;;;;;10398599;28;20432;-79
2022/10/24 17:15:28;;;;;;;26.70;17.90;;;14.70;99.90;;;;;;10390588;28;20024;-80
2022/10/24 17:20:28;;;;;;;31.55;17.85;;;14.70;99.90;;;;;;10399367;28;20481;-79
2022/10/24 17:25:29;;;;;;;26.73;16.92;;;14.70;99.90;;;;;;10399745;28;20029;-81
2022/10/24 17:30:29;;;;;;;34.10;19.77;;;14.60;99.90;;;;;;10394482;28;20424;-84
2022/10/24 17:35:34;;;;;;;27.75;16.42;;;14.60;99.90;;;;;;10395566;28;20030;-78
2022/10/24 17:40:44;;;;;;;25.50;15.25;;;14.70;99.90;;;;;;10388579;28;20049;-80
2022/10/24 17:45:45;;;;;;;31.00;16.77;;;14.80;99.90;;;;;;10391724;28;20029;-80
2022/10/24 17:50:46;;;;;;;27.08;15.35;;;14.80;99.90;;;;;;10405250;28;20037;-80
2022/10/24 17:55:47;;;;;;;28.02;16.35;;;14.90;99.90;;;;;;10386931;28;20067;-80
2022/10/24 18:00:47;;;;;;;25.27;16.42;;;15.00;99.90;;;;;;10397222;28;20120;-79
2022/10/24 18:05:48;;;;;;;29.52;17.45;;;15.00;99.90;;;;;;10397403;28;20065;-80
2022/10/24 18:10:49;;;;;;;29.17;17.45;;;15.10;99.90;;;;;;10380860;28;20032;-83
2022/10/24 18:15:49;;;;;;;33.95;19.08;;;15.10;99.90;;;;;;10390203;28;20033;-82
2022/10/24 18:20:50;;;;;;;28.65;17.08;;;15.10;99.90;;;;;;10405570;28;20037;-80
2022/10/24 18:25:51;;;;;;;28.55;17.10;;;15.10;99.90;;;;;;10406316;28;20478;-84
2022/10/24 18:30:51;;;;;;;25.75;15.43;;;15.10;99.90;;;;;;10400196;28;20056;-81
2022/10/24 18:35:52;;;;;;;25.77;15.05;;;15.10;99.90;;;;;;10403818;28;20029;-79
2022/10/24 18:40:52;;;;;;;24.15;15.60;;;15.10;99.90;;;;;;10407284;28;20408;-79
2022/10/24 18:45:53;;;;;;;26.83;16.08;;;15.10;99.90;;;;;;10392906;28;20132;-84
2022/10/24 18:50:54;;;;;;;26.73;15.82;;;15.10;99.90;;;;;;10394200;28;20037;-80
2022/10/24 18:55:55;;;;;;;29.75;18.15;;;15.00;99.90;;;;;;10406961;28;20461;-78
2022/10/24 19:00:57;;;;;;;32.45;19.60;;;15.10;99.90;;;;;;10402034;28;20538;-79
2022/10/24 19:06:18;;;;;;;46.47;27.13;;;15.10;99.90;;;;;;10385096;28;20045;-80
2022/10/24 19:11:19;;;;;;;54.08;32.13;;;15.10;99.90;;;;;;10398976;28;20033;-80
2022/10/24 19:16:23;;;;;;;71.38;40.42;;;15.10;99.90;;;;;;10385339;28;20032;-84
2022/10/24 19:21:25;;;;;;;69.32;36.35;;;15.10;99.90;;;;;;10401873;28;20037;-82
2022/10/24 19:26:25;;;;;;;48.47;28.42;;;15.10;99.90;;;;;;10404245;28;20469;-79
2022/10/24 19:31:26;;;;;;;57.53;35.10;;;15.10;99.90;;;;;;10395237;28;20037;-79
2022/10/24 19:36:26;;;;;;;65.30;37.42;;;15.10;99.90;;;;;;10403551;28;20040;-79
2022/10/24 19:41:27;;;;;;;55.58;32.60;;;15.00;99.90;;;;;;10387827;28;20041;-79
2022/10/24 19:46:27;;;;;;;57.45;34.83;;;15.00;99.90;;;;;;10395071;28;20035;-79
2022/10/24 19:51:28;;;;;;;54.95;34.60;;;15.00;99.90;;;;;;10392904;28;20728;-79
2022/10/24 19:56:30;;;;;;;73.97;43.28;;;15.00;99.90;;;;;;10392005;28;20388;-79
2022/10/24 20:01:30;;;;;;;56.92;36.20;;;15.00;99.90;;;;;;10385615;28;20026;-82
2022/10/24 20:06:31;;;;;;;52.10;31.27;;;14.90;99.90;;;;;;10400058;28;20053;-80
2022/10/24 20:11:31;;;;;;;47.08;28.60;;;14.90;99.90;;;;;;10404732;28;20030;-80
2022/10/24 20:16:32;;;;;;;45.35;27.48;;;14.80;99.90;;;;;;10377809;28;20037;-83
2022/10/24 20:21:35;;;;;;;52.47;29.92;;;14.70;99.90;;;;;;10390937;28;20560;-82
2022/10/24 20:26:35;;;;;;;53.00;28.75;;;14.70;99.90;;;;;;10402640;28;20030;-80
2022/10/24 20:31:38;;;;;;;53.33;30.15;;;14.60;99.90;;;;;;10394333;28;20045;-79
2022/10/24 20:36:43;;;;;;;58.38;31.70;;;14.50;99.90;;;;;;10400843;28;20046;-80
2022/10/24 20:41:43;;;;;;;50.80;29.23;;;14.50;99.90;;;;;;10404134;28;20033;-82
2022/10/24 20:46:44;;;;;;;55.35;30.42;;;14.40;99.90;;;;;;10397650;28;20030;-79
2022/10/24 20:51:44;;;;;;;64.28;33.67;;;14.40;99.90;;;;;;10403640;28;20026;-82
2022/10/24 20:56:45;;;;;;;70.20;38.47;;;14.40;99.90;;;;;;10402017;28;20677;-79
2022/10/24 21:01:45;;;;;;;60.78;33.45;;;14.30;99.90;;;;;;10397794;28;20029;-80
2022/10/24 21:06:46;;;;;;;65.68;36.78;;;14.30;99.90;;;;;;10400192;28;20125;-81
2022/10/24 21:11:47;;;;;;;72.90;41.38;;;14.30;99.90;;;;;;10380797;28;20454;-79
2022/10/24 21:16:48;;;;;;;68.93;38.13;;;14.20;99.90;;;;;;10394219;28;20031;-83
2022/10/24 21:21:48;;;;;;;79.15;40.42;;;14.30;99.90;;;;;;10399238;28;20492;-81
2022/10/24 21:26:49;;;;;;;92.45;41.65;;;14.20;99.90;;;;;;10409779;28;20032;-80
2022/10/24 21:31:50;;;;;;;86.50;42.47;;;14.20;99.90;;;;;;10408605;28;20056;-80
2022/10/24 21:36:50;;;;;;;95.57;41.85;;;14.20;99.90;;;;;;10398973;28;20037;-80
2022/10/24 21:41:51;;;;;;;111.20;45.35;;;14.20;99.90;;;;;;10401631;28;20473;-80
2022/10/24 21:46:53;;;;;;;95.80;41.80;;;14.20;99.90;;;;;;10394586;28;20044;-82
2022/10/24 21:51:53;;;;;;;94.20;41.35;;;14.10;99.90;;;;;;10408485;28;20029;-80
2022/10/24 21:56:54;;;;;;;98.85;43.00;;;14.00;99.90;;;;;;10409246;28;20032;-80
2022/10/24 22:01:55;;;;;;;130.70;48.35;;;14.00;99.90;;;;;;10390334;28;20823;-79
2022/10/24 22:06:55;;;;;;;133.88;50.50;;;14.10;99.90;;;;;;10403497;28;20125;-80
2022/10/24 22:11:59;;;;;;;148.30;58.20;;;14.10;99.90;;;;;;10407302;28;20476;-80
2022/10/24 22:16:59;;;;;;;175.05;64.13;;;14.10;99.90;;;;;;10407980;28;20554;-79
2022/10/24 22:22:00;;;;;;;159.60;60.80;;;14.10;99.90;;;;;;10392160;28;20117;-79
2022/10/24 22:27:00;;;;;;;142.98;53.47;;;14.10;99.90;;;;;;10407245;28;20026;-80
2022/10/24 22:32:01;;;;;;;119.68;47.97;;;14.10;99.90;;;;;;10378967;28;20029;-80
2022/10/24 22:37:27;;;;;;;137.23;50.55;;;14.10;99.90;;;;;;10385119;28;20030;-80
2022/10/24 22:42:27;;;;;;;132.87;48.13;;;14.10;99.90;;;;;;10405257;28;20033;-79
2022/10/24 22:47:48;;;;;;;145.27;50.38;;;14.00;99.90;;;;;;10404200;28;20391;-83
2022/10/24 22:52:49;;;;;;;135.82;50.28;;;14.00;99.90;;;;;;10402043;28;20018;-81
2022/10/24 22:57:50;;;;;;;154.45;54.55;;;14.00;99.90;;;;;;10399975;28;20037;-84
2022/10/24 23:02:59;;;;;;;178.05;56.75;;;14.00;99.90;;;;;;10405887;28;20095;-80
2022/10/24 23:08:08;;;;;;;190.18;64.15;;;14.00;99.90;;;;;;10402592;28;20073;-82
2022/10/24 23:13:09;;;;;;;181.95;63.65;;;14.00;99.90;;;;;;10405966;28;20025;-84
2022/10/24 23:18:12;;;;;;;188.02;63.53;;;14.00;99.90;;;;;;10405948;28;20551;-80
2022/10/24 23:23:17;;;;;;;158.07;52.42;;;14.00;99.90;;;;;;10406337;28;20093;-80
2022/10/24 23:28:41;;;;;;;189.38;56.65;;;14.10;99.90;;;;;;10401371;28;20029;-81
2022/10/24 23:33:42;;;;;;;166.90;56.05;;;14.10;99.90;;;;;;10405464;28;20080;-82
2022/10/24 23:38:43;;;;;;;146.30;49.97;;;14.00;99.90;;;;;;10397816;28;20116;-80
2022/10/24 23:43:44;;;;;;;130.55;45.83;;;14.00;99.90;;;;;;10404133;28;20029;-80
2022/10/24 23:49:11;;;;;;;138.43;45.17;;;14.00;99.90;;;;;;10383517;28;20034;-79
2022/10/24 23:54:12;;;;;;;141.15;45.47;;;14.00;99.90;;;;;;10393026;28;20040;-80
2022/10/24 23:59:13;;;;;;;137.45;46.15;;;14.00;99.90;;;;;;10404081;28;20049;-80
